sensor_id;sensor_type;location;lat;lon;timestamp;pressure;altitude;pressure_sealevel;temperature;humidity
19860;BME280;2395;50.738;7.122;2022-09-03T00:01:58;100583.84;;;19.69;42.22
19860;BME280;2395;50.738;7.122;2022-09-03T00:04:38;100585.09;;;19.53;42.87
19860;BME280;2395;50.738;7.122;2022-09-03T00:07:17;100584.63;;;19.59;43.13
19860;BME280;2395;50.738;7.122;2022-09-03T00:09:49;100585.47;;;19.59;43.64
19860;BME280;2395;50.738;7.122;2022-09-03T00:12:24;100589.19;;;19.44;43.46
19860;BME280;2395;50.738;7.122;2022-09-03T00:14:59;100583.31;;;19.42;43.80
19860;BME280;2395;50.738;7.122;2022-09-03T00:17:35;100587.66;;;19.42;44.54
19860;BME280;2395;50.738;7.122;2022-09-03T00:20:10;100580.13;;;19.50;45.29
19860;BME280;2395;50.738;7.122;2022-09-03T00:22:44;100582.72;;;19.50;45.24
19860;BME280;2395;50.738;7.122;2022-09-03T00:25:18;100575.84;;;19.49;45.89
19860;BME280;2395;50.738;7.122;2022-09-03T00:27:52;100588.03;;;19.48;45.96
19860;BME280;2395;50.738;7.122;2022-09-03T00:30:21;100584.84;;;19.45;46.83
19860;BME280;2395;50.738;7.122;2022-09-03T00:32:56;100580.41;;;19.34;46.99
19860;BME280;2395;50.738;7.122;2022-09-03T00:35:33;100578.28;;;19.28;46.43
19860;BME280;2395;50.738;7.122;2022-09-03T00:38:04;100578.78;;;19.33;46.73
19860;BME280;2395;50.738;7.122;2022-09-03T00:40:47;100577.53;;;19.26;47.33
19860;BME280;2395;50.738;7.122;2022-09-03T00:43:33;100581.75;;;19.16;47.28
19860;BME280;2395;50.738;7.122;2022-09-03T00:46:16;100576.34;;;19.19;46.54
19860;BME280;2395;50.738;7.122;2022-09-03T00:49:13;100574.94;;;19.26;47.42
19860;BME280;2395;50.738;7.122;2022-09-03T00:51:57;100574.47;;;19.21;46.30
19860;BME280;2395;50.738;7.122;2022-09-03T00:54:40;100572.53;;;19.12;46.77
19860;BME280;2395;50.738;7.122;2022-09-03T00:57:24;100574.09;;;19.02;46.96
19860;BME280;2395;50.738;7.122;2022-09-03T01:00:04;100575.22;;;19.11;46.67
19860;BME280;2395;50.738;7.122;2022-09-03T01:02:48;100572.44;;;19.01;47.36
19860;BME280;2395;50.738;7.122;2022-09-03T01:05:39;100566.00;;;18.94;47.48
19860;BME280;2395;50.738;7.122;2022-09-03T01:08:28;100568.03;;;18.79;47.50
19860;BME280;2395;50.738;7.122;2022-09-03T01:11:10;100574.78;;;18.81;47.29
19860;BME280;2395;50.738;7.122;2022-09-03T01:13:55;100574.84;;;18.69;47.58
19860;BME280;2395;50.738;7.122;2022-09-03T01:16:32;100572.25;;;18.69;47.70
19860;BME280;2395;50.738;7.122;2022-09-03T01:19:23;100569.75;;;18.67;47.90
19860;BME280;2395;50.738;7.122;2022-09-03T01:22:20;100569.56;;;18.58;47.49
19860;BME280;2395;50.738;7.122;2022-09-03T01:25:11;100583.50;;;18.57;48.22
19860;BME280;2395;50.738;7.122;2022-09-03T01:30:44;100566.22;;;18.56;48.41
19860;BME280;2395;50.738;7.122;2022-09-03T01:33:19;100575.09;;;18.53;49.10
19860;BME280;2395;50.738;7.122;2022-09-03T01:35:57;100579.63;;;18.62;49.74
19860;BME280;2395;50.738;7.122;2022-09-03T01:38:38;100579.97;;;18.58;49.46
19860;BME280;2395;50.738;7.122;2022-09-03T01:41:25;100574.88;;;18.56;50.27
19860;BME280;2395;50.738;7.122;2022-09-03T01:44:25;100571.66;;;18.53;50.50
19860;BME280;2395;50.738;7.122;2022-09-03T01:47:07;100576.88;;;18.53;50.67
19860;BME280;2395;50.738;7.122;2022-09-03T01:49:46;100577.88;;;18.63;50.46
19860;BME280;2395;50.738;7.122;2022-09-03T01:52:26;100569.22;;;18.62;50.13
19860;BME280;2395;50.738;7.122;2022-09-03T01:55:18;100567.81;;;18.58;51.46
19860;BME280;2395;50.738;7.122;2022-09-03T01:57:56;100568.47;;;18.49;51.46
19860;BME280;2395;50.738;7.122;2022-09-03T02:00:26;100567.81;;;18.58;51.40
19860;BME280;2395;50.738;7.122;2022-09-03T02:03:01;100571.34;;;18.57;51.06
19860;BME280;2395;50.738;7.122;2022-09-03T02:05:31;100571.75;;;18.64;50.24
19860;BME280;2395;50.738;7.122;2022-09-03T02:08:04;100572.41;;;18.55;51.18
19860;BME280;2395;50.738;7.122;2022-09-03T02:10:37;100567.41;;;18.52;50.96
19860;BME280;2395;50.738;7.122;2022-09-03T02:13:09;100565.53;;;18.54;51.06
19860;BME280;2395;50.738;7.122;2022-09-03T02:15:42;100558.59;;;18.42;51.19
19860;BME280;2395;50.738;7.122;2022-09-03T02:18:18;100562.22;;;18.52;50.75
19860;BME280;2395;50.738;7.122;2022-09-03T02:20:52;100552.88;;;18.37;50.95
19860;BME280;2395;50.738;7.122;2022-09-03T02:23:33;100554.66;;;18.36;50.42
19860;BME280;2395;50.738;7.122;2022-09-03T02:26:02;100556.94;;;18.28;51.31
19860;BME280;2395;50.738;7.122;2022-09-03T02:28:31;100566.28;;;18.18;49.87
19860;BME280;2395;50.738;7.122;2022-09-03T02:30:59;100558.09;;;18.24;50.16
19860;BME280;2395;50.738;7.122;2022-09-03T02:33:29;100559.22;;;18.20;50.00
19860;BME280;2395;50.738;7.122;2022-09-03T02:35:56;100568.25;;;18.15;50.04
19860;BME280;2395;50.738;7.122;2022-09-03T02:38:25;100560.97;;;18.20;50.38
19860;BME280;2395;50.738;7.122;2022-09-03T02:40:53;100556.91;;;18.16;50.44
19860;BME280;2395;50.738;7.122;2022-09-03T02:43:26;100560.56;;;18.26;50.19
19860;BME280;2395;50.738;7.122;2022-09-03T02:46:01;100560.25;;;18.18;50.11
19860;BME280;2395;50.738;7.122;2022-09-03T02:48:30;100563.56;;;18.20;50.33
19860;BME280;2395;50.738;7.122;2022-09-03T02:50:58;100557.44;;;18.21;49.82
19860;BME280;2395;50.738;7.122;2022-09-03T02:53:25;100564.63;;;18.17;50.70
19860;BME280;2395;50.738;7.122;2022-09-03T02:55:58;100557.22;;;18.11;49.27
19860;BME280;2395;50.738;7.122;2022-09-03T02:58:26;100556.84;;;18.05;49.92
19860;BME280;2395;50.738;7.122;2022-09-03T03:00:54;100556.22;;;18.14;50.17
19860;BME280;2395;50.738;7.122;2022-09-03T03:03:21;100561.59;;;18.11;49.56
19860;BME280;2395;50.738;7.122;2022-09-03T03:05:51;100562.03;;;18.05;49.53
19860;BME280;2395;50.738;7.122;2022-09-03T03:08:23;100562.94;;;17.92;49.24
19860;BME280;2395;50.738;7.122;2022-09-03T03:10:54;100552.88;;;17.87;49.84
19860;BME280;2395;50.738;7.122;2022-09-03T03:13:24;100550.19;;;17.76;49.33
19860;BME280;2395;50.738;7.122;2022-09-03T03:15:55;100554.16;;;17.94;49.09
19860;BME280;2395;50.738;7.122;2022-09-03T03:18:22;100558.91;;;18.00;49.86
19860;BME280;2395;50.738;7.122;2022-09-03T03:20:51;100563.38;;;17.98;49.13
19860;BME280;2395;50.738;7.122;2022-09-03T03:23:18;100556.31;;;18.00;49.44
19860;BME280;2395;50.738;7.122;2022-09-03T03:25:46;100556.31;;;18.00;49.53
19860;BME280;2395;50.738;7.122;2022-09-03T03:28:13;100551.75;;;17.91;49.82
19860;BME280;2395;50.738;7.122;2022-09-03T03:30:40;100548.22;;;17.92;49.78
19860;BME280;2395;50.738;7.122;2022-09-03T03:33:08;100543.13;;;18.03;49.51
19860;BME280;2395;50.738;7.122;2022-09-03T03:35:35;100545.41;;;18.07;49.60
19860;BME280;2395;50.738;7.122;2022-09-03T03:38:04;100549.13;;;18.16;49.41
19860;BME280;2395;50.738;7.122;2022-09-03T03:40:31;100543.72;;;18.31;48.61
19860;BME280;2395;50.738;7.122;2022-09-03T03:42:58;100544.38;;;18.35;48.93
19860;BME280;2395;50.738;7.122;2022-09-03T03:45:25;100544.78;;;18.29;48.89
19860;BME280;2395;50.738;7.122;2022-09-03T03:47:56;100550.50;;;18.34;48.35
19860;BME280;2395;50.738;7.122;2022-09-03T03:50:24;100547.47;;;18.40;48.55
19860;BME280;2395;50.738;7.122;2022-09-03T03:52:51;100547.66;;;18.37;48.63
19860;BME280;2395;50.738;7.122;2022-09-03T03:55:19;100552.94;;;18.48;48.90
19860;BME280;2395;50.738;7.122;2022-09-03T03:57:49;100552.47;;;18.43;48.92
19860;BME280;2395;50.738;7.122;2022-09-03T04:00:16;100554.31;;;18.41;48.33
19860;BME280;2395;50.738;7.122;2022-09-03T04:02:43;100548.31;;;18.40;48.31
19860;BME280;2395;50.738;7.122;2022-09-03T04:05:11;100547.75;;;18.48;49.07
19860;BME280;2395;50.738;7.122;2022-09-03T04:07:38;100547.03;;;18.46;48.55
19860;BME280;2395;50.738;7.122;2022-09-03T04:10:07;100548.06;;;18.43;48.77
19860;BME280;2395;50.738;7.122;2022-09-03T04:12:36;100553.88;;;18.47;48.76
19860;BME280;2395;50.738;7.122;2022-09-03T04:15:03;100555.78;;;18.45;48.28
19860;BME280;2395;50.738;7.122;2022-09-03T04:17:31;100561.19;;;18.42;48.66
19860;BME280;2395;50.738;7.122;2022-09-03T04:19:58;100550.78;;;18.42;48.45
19860;BME280;2395;50.738;7.122;2022-09-03T04:22:27;100558.38;;;18.45;48.48
19860;BME280;2395;50.738;7.122;2022-09-03T04:24:54;100552.88;;;18.37;49.24
19860;BME280;2395;50.738;7.122;2022-09-03T04:27:21;100548.53;;;18.25;48.51
19860;BME280;2395;50.738;7.122;2022-09-03T04:29:49;100551.63;;;18.17;49.44
19860;BME280;2395;50.738;7.122;2022-09-03T04:32:16;100543.31;;;18.00;49.59
19860;BME280;2395;50.738;7.122;2022-09-03T04:35:00;100542.94;;;18.06;49.76
19860;BME280;2395;50.738;7.122;2022-09-03T04:37:28;100549.13;;;18.41;52.33
19860;BME280;2395;50.738;7.122;2022-09-03T04:39:55;100545.38;;;19.04;51.89
19860;BME280;2395;50.738;7.122;2022-09-03T04:42:22;100545.19;;;19.41;51.43
19860;BME280;2395;50.738;7.122;2022-09-03T04:44:50;100544.81;;;19.35;50.88
19860;BME280;2395;50.738;7.122;2022-09-03T04:47:17;100533.41;;;19.59;50.50
19860;BME280;2395;50.738;7.122;2022-09-03T04:49:44;100538.91;;;19.89;50.19
19860;BME280;2395;50.738;7.122;2022-09-03T04:52:11;100540.66;;;19.77;48.15
19860;BME280;2395;50.738;7.122;2022-09-03T04:54:38;100538.31;;;19.85;47.51
19860;BME280;2395;50.738;7.122;2022-09-03T04:57:05;100543.44;;;19.98;47.57
19860;BME280;2395;50.738;7.122;2022-09-03T04:59:32;100551.91;;;19.78;47.70
19860;BME280;2395;50.738;7.122;2022-09-03T05:02:00;100544.84;;;19.91;47.73
19860;BME280;2395;50.738;7.122;2022-09-03T05:04:27;100549.59;;;19.97;47.35
19860;BME280;2395;50.738;7.122;2022-09-03T05:06:54;100548.38;;;19.90;46.52
19860;BME280;2395;50.738;7.122;2022-09-03T05:09:21;100557.69;;;19.71;46.31
19860;BME280;2395;50.738;7.122;2022-09-03T05:11:48;100552.69;;;20.02;46.89
19860;BME280;2395;50.738;7.122;2022-09-03T05:14:15;100553.16;;;20.18;47.30
19860;BME280;2395;50.738;7.122;2022-09-03T05:16:42;100557.19;;;20.22;46.38
19860;BME280;2395;50.738;7.122;2022-09-03T05:19:10;100555.78;;;20.29;46.52
19860;BME280;2395;50.738;7.122;2022-09-03T05:21:37;100557.06;;;20.45;48.32
19860;BME280;2395;50.738;7.122;2022-09-03T05:24:04;100558.69;;;20.46;47.85
19860;BME280;2395;50.738;7.122;2022-09-03T05:26:36;100558.03;;;20.33;46.77
19860;BME280;2395;50.738;7.122;2022-09-03T05:29:05;100555.66;;;20.19;47.74
19860;BME280;2395;50.738;7.122;2022-09-03T05:31:36;100559.78;;;20.22;48.17
19860;BME280;2395;50.738;7.122;2022-09-03T05:34:04;100547.69;;;20.54;47.03
19860;BME280;2395;50.738;7.122;2022-09-03T05:36:35;100551.91;;;20.87;45.02
19860;BME280;2395;50.738;7.122;2022-09-03T05:39:03;100552.78;;;20.55;46.91
19860;BME280;2395;50.738;7.122;2022-09-03T05:41:31;100551.06;;;19.67;46.21
19860;BME280;2395;50.738;7.122;2022-09-03T05:43:59;100554.69;;;19.19;48.33
19860;BME280;2395;50.738;7.122;2022-09-03T05:46:28;100560.91;;;19.40;48.46
19860;BME280;2395;50.738;7.122;2022-09-03T05:48:57;100551.88;;;19.22;48.97
19860;BME280;2395;50.738;7.122;2022-09-03T05:51:24;100553.78;;;19.76;48.51
19860;BME280;2395;50.738;7.122;2022-09-03T05:53:53;100552.66;;;19.91;48.70
19860;BME280;2395;50.738;7.122;2022-09-03T05:56:23;100554.94;;;20.17;47.44
19860;BME280;2395;50.738;7.122;2022-09-03T05:58:53;100562.38;;;20.33;46.69
19860;BME280;2395;50.738;7.122;2022-09-03T06:01:23;100556.44;;;20.42;46.98
19860;BME280;2395;50.738;7.122;2022-09-03T06:03:54;100560.63;;;20.44;47.15
19860;BME280;2395;50.738;7.122;2022-09-03T06:06:24;100560.25;;;20.60;46.80
19860;BME280;2395;50.738;7.122;2022-09-03T06:08:54;100568.75;;;20.83;46.76
19860;BME280;2395;50.738;7.122;2022-09-03T06:11:23;100564.47;;;20.71;45.43
19860;BME280;2395;50.738;7.122;2022-09-03T06:13:51;100566.88;;;20.85;44.84
19860;BME280;2395;50.738;7.122;2022-09-03T06:16:18;100565.50;;;21.02;45.38
19860;BME280;2395;50.738;7.122;2022-09-03T06:18:46;100571.38;;;20.83;45.10
19860;BME280;2395;50.738;7.122;2022-09-03T06:21:14;100576.31;;;20.97;45.60
19860;BME280;2395;50.738;7.122;2022-09-03T06:23:41;100579.72;;;21.09;45.26
19860;BME280;2395;50.738;7.122;2022-09-03T06:26:12;100574.97;;;21.14;45.46
19860;BME280;2395;50.738;7.122;2022-09-03T06:28:42;100574.03;;;21.35;44.38
19860;BME280;2395;50.738;7.122;2022-09-03T06:31:12;100567.56;;;21.50;45.19
19860;BME280;2395;50.738;7.122;2022-09-03T06:33:41;100565.88;;;21.60;44.48
19860;BME280;2395;50.738;7.122;2022-09-03T06:36:12;100568.72;;;21.26;44.17
19860;BME280;2395;50.738;7.122;2022-09-03T06:38:40;100566.84;;;20.96;45.29
19860;BME280;2395;50.738;7.122;2022-09-03T06:41:12;100573.81;;;21.38;45.65
19860;BME280;2395;50.738;7.122;2022-09-03T06:43:41;100572.69;;;21.72;44.14
19860;BME280;2395;50.738;7.122;2022-09-03T06:46:11;100570.41;;;20.73;45.17
19860;BME280;2395;50.738;7.122;2022-09-03T06:48:39;100576.19;;;21.30;45.12
19860;BME280;2395;50.738;7.122;2022-09-03T06:51:09;100574.00;;;21.46;45.58
19860;BME280;2395;50.738;7.122;2022-09-03T06:53:38;100570.13;;;21.09;45.47
19860;BME280;2395;50.738;7.122;2022-09-03T06:56:09;100572.25;;;21.04;45.39
19860;BME280;2395;50.738;7.122;2022-09-03T06:58:39;100578.19;;;21.06;45.77
19860;BME280;2395;50.738;7.122;2022-09-03T07:01:10;100582.38;;;21.29;46.11
19860;BME280;2395;50.738;7.122;2022-09-03T07:03:39;100579.66;;;20.88;46.40
19860;BME280;2395;50.738;7.122;2022-09-03T07:06:09;100576.22;;;20.88;45.38
19860;BME280;2395;50.738;7.122;2022-09-03T07:08:37;100584.41;;;20.62;46.28
19860;BME280;2395;50.738;7.122;2022-09-03T07:11:07;100588.22;;;20.36;47.11
19860;BME280;2395;50.738;7.122;2022-09-03T07:13:37;100587.63;;;20.54;45.98
19860;BME280;2395;50.738;7.122;2022-09-03T07:16:08;100596.75;;;20.60;46.96
19860;BME280;2395;50.738;7.122;2022-09-03T07:18:36;100600.31;;;20.59;46.69
19860;BME280;2395;50.738;7.122;2022-09-03T07:21:06;100599.25;;;20.50;46.54
19860;BME280;2395;50.738;7.122;2022-09-03T07:23:36;100598.44;;;20.50;47.28
19860;BME280;2395;50.738;7.122;2022-09-03T07:26:07;100606.59;;;20.23;46.41
19860;BME280;2395;50.738;7.122;2022-09-03T07:28:39;100609.00;;;19.92;47.92
19860;BME280;2395;50.738;7.122;2022-09-03T07:31:09;100611.31;;;19.62;48.96
19860;BME280;2395;50.738;7.122;2022-09-03T07:33:37;100613.56;;;19.43;49.96
19860;BME280;2395;50.738;7.122;2022-09-03T07:36:06;100612.44;;;19.92;51.99
19860;BME280;2395;50.738;7.122;2022-09-03T07:38:35;100620.72;;;19.29;54.48
19860;BME280;2395;50.738;7.122;2022-09-03T07:41:05;100621.75;;;19.50;56.60
19860;BME280;2395;50.738;7.122;2022-09-03T07:43:37;100615.97;;;19.46;57.40
19860;BME280;2395;50.738;7.122;2022-09-03T07:46:05;100616.41;;;19.04;59.11
19860;BME280;2395;50.738;7.122;2022-09-03T07:48:33;100616.38;;;18.93;63.15
19860;BME280;2395;50.738;7.122;2022-09-03T07:51:00;100618.09;;;19.05;64.13
19860;BME280;2395;50.738;7.122;2022-09-03T07:53:28;100620.53;;;18.96;64.32
19860;BME280;2395;50.738;7.122;2022-09-03T07:56:01;100624.97;;;18.71;67.08
19860;BME280;2395;50.738;7.122;2022-09-03T07:58:29;100634.22;;;18.62;67.56
19860;BME280;2395;50.738;7.122;2022-09-03T08:00:58;100629.72;;;18.77;66.99
19860;BME280;2395;50.738;7.122;2022-09-03T08:03:25;100631.34;;;18.42;68.43
19860;BME280;2395;50.738;7.122;2022-09-03T08:05:52;100630.69;;;18.63;68.49
19860;BME280;2395;50.738;7.122;2022-09-03T08:08:20;100635.41;;;18.33;70.03
19860;BME280;2395;50.738;7.122;2022-09-03T08:10:48;100637.03;;;18.47;71.85
19860;BME280;2395;50.738;7.122;2022-09-03T08:13:15;100641.53;;;18.45;70.63
19860;BME280;2395;50.738;7.122;2022-09-03T08:15:42;100647.03;;;18.28;70.15
19860;BME280;2395;50.738;7.122;2022-09-03T08:18:10;100647.03;;;18.28;72.13
19860;BME280;2395;50.738;7.122;2022-09-03T08:20:38;100648.47;;;18.57;72.76
19860;BME280;2395;50.738;7.122;2022-09-03T08:23:05;100642.75;;;18.64;71.19
19860;BME280;2395;50.738;7.122;2022-09-03T08:25:32;100641.63;;;18.68;72.98
19860;BME280;2395;50.738;7.122;2022-09-03T08:27:59;100642.63;;;18.66;71.83
19860;BME280;2395;50.738;7.122;2022-09-03T08:30:26;100642.03;;;18.75;71.37
19860;BME280;2395;50.738;7.122;2022-09-03T08:32:54;100633.91;;;18.79;73.38
19860;BME280;2395;50.738;7.122;2022-09-03T08:35:22;100636.84;;;18.50;73.45
19860;BME280;2395;50.738;7.122;2022-09-03T08:37:49;100646.44;;;18.49;73.15
19860;BME280;2395;50.738;7.122;2022-09-03T08:40:19;100634.31;;;18.73;73.21
19860;BME280;2395;50.738;7.122;2022-09-03T08:43:06;100637.66;;;19.11;71.68
19860;BME280;2395;50.738;7.122;2022-09-03T08:45:38;100641.38;;;19.19;71.47
19860;BME280;2395;50.738;7.122;2022-09-03T08:48:09;100640.06;;;19.14;71.48
19860;BME280;2395;50.738;7.122;2022-09-03T08:50:44;100645.03;;;19.17;72.03
19860;BME280;2395;50.738;7.122;2022-09-03T08:53:20;100647.16;;;18.99;72.75
19860;BME280;2395;50.738;7.122;2022-09-03T08:55:52;100648.59;;;19.03;71.05
19860;BME280;2395;50.738;7.122;2022-09-03T08:58:25;100650.53;;;19.25;70.47
19860;BME280;2395;50.738;7.122;2022-09-03T09:00:58;100651.97;;;19.52;69.67
19860;BME280;2395;50.738;7.122;2022-09-03T09:03:44;100651.63;;;19.57;69.64
19860;BME280;2395;50.738;7.122;2022-09-03T09:06:22;100648.84;;;19.47;70.12
19860;BME280;2395;50.738;7.122;2022-09-03T09:09:04;100647.34;;;19.79;68.28
19860;BME280;2395;50.738;7.122;2022-09-03T09:11:57;100655.78;;;19.93;70.06
19860;BME280;2395;50.738;7.122;2022-09-03T09:14:34;100653.03;;;20.40;68.73
19860;BME280;2395;50.738;7.122;2022-09-03T09:17:29;100648.81;;;20.83;66.66
19860;BME280;2395;50.738;7.122;2022-09-03T09:20:09;100638.13;;;20.86;66.27
19860;BME280;2395;50.738;7.122;2022-09-03T09:22:46;100642.94;;;21.12;65.26
19860;BME280;2395;50.738;7.122;2022-09-03T09:25:18;100641.72;;;21.27;64.09
19860;BME280;2395;50.738;7.122;2022-09-03T09:27:52;100637.50;;;21.47;63.74
19860;BME280;2395;50.738;7.122;2022-09-03T09:30:21;100638.34;;;21.47;62.59
19860;BME280;2395;50.738;7.122;2022-09-03T09:32:48;100636.53;;;21.58;63.15
19860;BME280;2395;50.738;7.122;2022-09-03T09:35:17;100636.00;;;21.96;61.50
19860;BME280;2395;50.738;7.122;2022-09-03T09:37:52;100641.34;;;22.15;61.61
19860;BME280;2395;50.738;7.122;2022-09-03T09:40:26;100640.88;;;21.69;62.41
19860;BME280;2395;50.738;7.122;2022-09-03T09:43:07;100639.81;;;21.29;64.02
19860;BME280;2395;50.738;7.122;2022-09-03T09:45:37;100639.81;;;21.71;60.70
19860;BME280;2395;50.738;7.122;2022-09-03T09:48:14;100637.69;;;21.65;60.29
19860;BME280;2395;50.738;7.122;2022-09-03T09:50:43;100646.94;;;21.69;58.00
19860;BME280;2395;50.738;7.122;2022-09-03T09:53:12;100648.06;;;21.45;57.49
19860;BME280;2395;50.738;7.122;2022-09-03T09:55:54;100642.91;;;21.65;57.97
19860;BME280;2395;50.738;7.122;2022-09-03T09:58:25;100645.66;;;21.64;57.65
19860;BME280;2395;50.738;7.122;2022-09-03T10:01:03;100639.63;;;21.52;55.27
19860;BME280;2395;50.738;7.122;2022-09-03T10:03:48;100638.34;;;21.47;56.47
19860;BME280;2395;50.738;7.122;2022-09-03T10:06:15;100641.25;;;21.64;56.11
19860;BME280;2395;50.738;7.122;2022-09-03T10:09:10;100639.16;;;21.79;55.32
19860;BME280;2395;50.738;7.122;2022-09-03T10:11:43;100640.25;;;21.45;56.74
19860;BME280;2395;50.738;7.122;2022-09-03T10:14:22;100634.66;;;22.01;56.57
19860;BME280;2395;50.738;7.122;2022-09-03T10:16:58;100639.09;;;21.38;56.44
19860;BME280;2395;50.738;7.122;2022-09-03T10:19:39;100645.09;;;21.50;57.78
19860;BME280;2395;50.738;7.122;2022-09-03T10:22:43;100645.19;;;21.59;56.00
19860;BME280;2395;50.738;7.122;2022-09-03T10:25:14;100642.03;;;21.76;55.62
19860;BME280;2395;50.738;7.122;2022-09-03T10:27:43;100640.88;;;22.10;54.21
19860;BME280;2395;50.738;7.122;2022-09-03T10:30:11;100642.34;;;22.03;54.44
19860;BME280;2395;50.738;7.122;2022-09-03T10:32:47;100640.56;;;21.83;55.41
19860;BME280;2395;50.738;7.122;2022-09-03T10:35:29;100638.25;;;22.10;56.54
19860;BME280;2395;50.738;7.122;2022-09-03T10:38:09;100635.16;;;22.16;54.57
19860;BME280;2395;50.738;7.122;2022-09-03T10:40:57;100629.16;;;22.25;54.34
19860;BME280;2395;50.738;7.122;2022-09-03T10:44:00;100632.97;;;22.80;53.69
19860;BME280;2395;50.738;7.122;2022-09-03T10:46:43;100634.19;;;22.67;53.78
19860;BME280;2395;50.738;7.122;2022-09-03T10:49:29;100630.97;;;22.93;53.01
19860;BME280;2395;50.738;7.122;2022-09-03T10:52:08;100630.25;;;22.91;53.33
19860;BME280;2395;50.738;7.122;2022-09-03T10:54:54;100623.91;;;22.94;52.30
19860;BME280;2395;50.738;7.122;2022-09-03T10:57:44;100625.41;;;23.35;52.66
19860;BME280;2395;50.738;7.122;2022-09-03T11:00:15;100631.47;;;22.78;50.82
19860;BME280;2395;50.738;7.122;2022-09-03T11:03:29;100628.19;;;22.85;53.41
19860;BME280;2395;50.738;7.122;2022-09-03T11:06:10;100629.34;;;22.62;53.87
19860;BME280;2395;50.738;7.122;2022-09-03T11:08:44;100626.81;;;22.91;53.64
19860;BME280;2395;50.738;7.122;2022-09-03T11:11:17;100625.31;;;22.98;53.14
19860;BME280;2395;50.738;7.122;2022-09-03T11:13:51;100614.22;;;23.15;53.15
19860;BME280;2395;50.738;7.122;2022-09-03T11:16:24;100621.38;;;23.50;51.30
19860;BME280;2395;50.738;7.122;2022-09-03T11:18:56;100623.34;;;23.86;51.89
19860;BME280;2395;50.738;7.122;2022-09-03T11:21:29;100614.63;;;23.67;51.74
19860;BME280;2395;50.738;7.122;2022-09-03T11:24:12;100606.97;;;22.88;53.01
19860;BME280;2395;50.738;7.122;2022-09-03T11:26:43;100605.38;;;23.25;52.79
19860;BME280;2395;50.738;7.122;2022-09-03T11:29:22;100608.19;;;23.33;51.73
19860;BME280;2395;50.738;7.122;2022-09-03T11:32:00;100604.03;;;23.59;52.13
19860;BME280;2395;50.738;7.122;2022-09-03T11:34:45;100601.81;;;23.73;51.64
19860;BME280;2395;50.738;7.122;2022-09-03T11:37:20;100601.81;;;23.92;51.19
19860;BME280;2395;50.738;7.122;2022-09-03T11:39:57;100596.59;;;24.28;49.44
19860;BME280;2395;50.738;7.122;2022-09-03T11:42:30;100592.66;;;24.42;49.56
19860;BME280;2395;50.738;7.122;2022-09-03T11:45:23;100577.81;;;25.13;47.94
19860;BME280;2395;50.738;7.122;2022-09-03T11:47:59;100579.97;;;25.18;48.08
19860;BME280;2395;50.738;7.122;2022-09-03T11:50:28;100577.38;;;25.08;47.72
19860;BME280;2395;50.738;7.122;2022-09-03T11:53:08;100577.25;;;25.62;46.76
19860;BME280;2395;50.738;7.122;2022-09-03T11:55:53;100570.28;;;25.53;46.88
19860;BME280;2395;50.738;7.122;2022-09-03T11:58:25;100570.78;;;25.57;46.65
19860;BME280;2395;50.738;7.122;2022-09-03T12:00:57;100565.13;;;25.69;47.62
19860;BME280;2395;50.738;7.122;2022-09-03T12:03:34;100569.16;;;25.56;47.07
19860;BME280;2395;50.738;7.122;2022-09-03T12:06:36;100563.25;;;25.62;46.80
19860;BME280;2395;50.738;7.122;2022-09-03T12:09:28;100564.19;;;25.96;46.48
19860;BME280;2395;50.738;7.122;2022-09-03T12:12:13;100552.91;;;26.03;45.79
19860;BME280;2395;50.738;7.122;2022-09-03T12:14:58;100553.44;;;26.14;46.33
19860;BME280;2395;50.738;7.122;2022-09-03T12:17:39;100555.66;;;27.09;43.71
19860;BME280;2395;50.738;7.122;2022-09-03T12:20:14;100551.50;;;26.16;45.12
19860;BME280;2395;50.738;7.122;2022-09-03T12:22:42;100555.50;;;26.28;46.94
19860;BME280;2395;50.738;7.122;2022-09-03T12:25:11;100546.78;;;26.69;45.91
19860;BME280;2395;50.738;7.122;2022-09-03T12:27:42;100558.06;;;26.95;44.10
19860;BME280;2395;50.738;7.122;2022-09-03T12:30:16;100551.50;;;27.07;44.87
19860;BME280;2395;50.738;7.122;2022-09-03T12:32:44;100547.25;;;27.14;44.81
19860;BME280;2395;50.738;7.122;2022-09-03T12:35:14;100541.97;;;27.30;43.91
19860;BME280;2395;50.738;7.122;2022-09-03T12:37:43;100547.91;;;27.56;42.87
19860;BME280;2395;50.738;7.122;2022-09-03T12:40:20;100545.63;;;26.64;45.74
19860;BME280;2395;50.738;7.122;2022-09-03T12:42:48;100546.50;;;26.05;45.82
19860;BME280;2395;50.738;7.122;2022-09-03T12:45:20;100550.69;;;27.54;43.82
19860;BME280;2395;50.738;7.122;2022-09-03T12:47:50;100548.53;;;27.97;43.19
19860;BME280;2395;50.738;7.122;2022-09-03T12:50:21;100544.59;;;27.93;43.07
19860;BME280;2395;50.738;7.122;2022-09-03T12:52:52;100545.66;;;28.15;42.11
19860;BME280;2395;50.738;7.122;2022-09-03T12:55:31;100540.22;;;28.16;42.67
19860;BME280;2395;50.738;7.122;2022-09-03T12:58:07;100535.25;;;28.21;42.49
19860;BME280;2395;50.738;7.122;2022-09-03T13:00:42;100538.00;;;28.74;41.18
19860;BME280;2395;50.738;7.122;2022-09-03T13:03:17;100537.78;;;28.07;43.17
19860;BME280;2395;50.738;7.122;2022-09-03T13:05:54;100535.34;;;27.89;41.30
19860;BME280;2395;50.738;7.122;2022-09-03T13:08:26;100524.00;;;27.25;42.91
19860;BME280;2395;50.738;7.122;2022-09-03T13:10:58;100529.69;;;28.24;41.91
19860;BME280;2395;50.738;7.122;2022-09-03T13:13:31;100521.03;;;28.38;41.07
19860;BME280;2395;50.738;7.122;2022-09-03T13:16:46;100519.81;;;28.79;40.69
19860;BME280;2395;50.738;7.122;2022-09-03T13:19:24;100520.03;;;29.22;40.45
19860;BME280;2395;50.738;7.122;2022-09-03T13:22:08;100516.09;;;29.41;39.37
19860;BME280;2395;50.738;7.122;2022-09-03T13:25:11;100502.84;;;29.77;38.30
19860;BME280;2395;50.738;7.122;2022-09-03T13:27:45;100505.38;;;29.34;39.20
19860;BME280;2395;50.738;7.122;2022-09-03T13:30:21;100507.94;;;30.22;38.52
19860;BME280;2395;50.738;7.122;2022-09-03T13:32:58;100506.81;;;30.60;37.35
19860;BME280;2395;50.738;7.122;2022-09-03T13:35:36;100504.94;;;30.25;37.34
19860;BME280;2395;50.738;7.122;2022-09-03T13:38:18;100508.19;;;29.33;39.05